createdAt,value
2017-08-31T00:00:22.334Z,0
2017-08-31T00:01:02.872Z,0
2017-08-31T00:01:43.440Z,0
2017-08-31T00:02:23.980Z,0
2017-08-31T00:03:04.523Z,0
2017-08-31T00:03:45.064Z,0
2017-08-31T00:04:25.587Z,0
2017-08-31T00:05:06.111Z,0
2017-08-31T00:05:46.645Z,0
2017-08-31T00:06:27.188Z,0
2017-08-31T00:07:07.749Z,0
2017-08-31T00:07:48.284Z,0
2017-08-31T00:08:28.833Z,0
2017-08-31T00:09:09.373Z,0
2017-08-31T00:09:49.922Z,0
2017-08-31T00:10:30.460Z,0
2017-08-31T00:11:11.000Z,0
2017-08-31T00:11:51.546Z,0
2017-08-31T00:12:32.091Z,0
2017-08-31T00:13:12.636Z,0
2017-08-31T00:13:53.155Z,0
2017-08-31T00:14:33.692Z,0
2017-08-31T00:15:14.231Z,0
2017-08-31T00:15:54.789Z,0
2017-08-31T00:16:35.328Z,0
2017-08-31T00:17:15.878Z,0
2017-08-31T00:17:56.420Z,0
2017-08-31T00:18:36.958Z,0
2017-08-31T00:19:17.501Z,0
2017-08-31T00:19:58.026Z,0
2017-08-31T00:20:38.569Z,0
2017-08-31T00:21:19.109Z,0
2017-08-31T00:21:59.649Z,0
2017-08-31T00:22:40.187Z,0
2017-08-31T00:23:20.727Z,0
2017-08-31T00:24:01.266Z,0
2017-08-31T00:24:41.802Z,0
2017-08-31T00:25:22.344Z,0
2017-08-31T00:26:02.880Z,0
2017-08-31T00:26:43.433Z,0
2017-08-31T00:27:24.040Z,0
2017-08-31T00:28:04.572Z,0
2017-08-31T00:28:45.108Z,0
2017-08-31T00:29:25.636Z,0
2017-08-31T00:30:06.176Z,0
2017-08-31T00:30:46.714Z,0
2017-08-31T00:31:27.256Z,0
2017-08-31T00:32:07.796Z,0
2017-08-31T00:32:48.317Z,0
2017-08-31T00:33:28.854Z,0
2017-08-31T00:34:09.380Z,0
2017-08-31T00:34:49.920Z,0
2017-08-31T00:35:30.460Z,0
2017-08-31T00:36:11.000Z,0
2017-08-31T00:36:51.540Z,0
2017-08-31T00:37:32.100Z,0
2017-08-31T00:38:12.651Z,0
2017-08-31T00:38:53.201Z,0
2017-08-31T00:39:33.744Z,0
2017-08-31T00:40:14.281Z,0
2017-08-31T00:40:54.825Z,0
2017-08-31T00:41:35.370Z,0
2017-08-31T00:42:15.917Z,0
2017-08-31T00:42:56.451Z,0
2017-08-31T00:43:36.993Z,0
2017-08-31T00:44:17.532Z,0
2017-08-31T00:44:58.070Z,0
2017-08-31T00:45:38.613Z,0
2017-08-31T00:46:19.165Z,0
2017-08-31T00:46:59.709Z,0
2017-08-31T00:47:40.250Z,0
2017-08-31T00:48:20.790Z,0
2017-08-31T00:49:01.329Z,0
2017-08-31T00:49:41.877Z,0
2017-08-31T00:50:22.418Z,0
2017-08-31T00:51:02.959Z,0
2017-08-31T00:51:43.491Z,0
2017-08-31T00:52:24.038Z,0
2017-08-31T00:53:04.572Z,0
2017-08-31T00:53:45.116Z,0
2017-08-31T00:54:25.649Z,0
2017-08-31T00:55:06.193Z,0
2017-08-31T00:55:46.736Z,0
2017-08-31T00:56:27.289Z,0
2017-08-31T00:57:07.803Z,0
2017-08-31T00:57:48.344Z,0
2017-08-31T00:58:28.887Z,0
2017-08-31T00:59:09.458Z,0
2017-08-31T00:59:49.999Z,0
2017-08-31T01:00:30.538Z,0
2017-08-31T01:01:11.081Z,0
2017-08-31T01:01:51.639Z,0
2017-08-31T01:02:32.181Z,0
2017-08-31T01:03:12.729Z,0
2017-08-31T01:03:53.275Z,0
2017-08-31T01:04:33.809Z,0
2017-08-31T01:05:14.350Z,0
2017-08-31T01:05:54.877Z,0
2017-08-31T01:06:35.417Z,0
2017-08-31T01:07:16.009Z,0
2017-08-31T01:07:56.550Z,0
2017-08-31T01:08:37.088Z,0
2017-08-31T01:09:17.640Z,0
2017-08-31T01:09:58.172Z,0
2017-08-31T01:10:38.710Z,0
2017-08-31T01:11:19.249Z,0
2017-08-31T01:11:59.792Z,0
2017-08-31T01:12:40.346Z,0
2017-08-31T01:13:20.891Z,0
2017-08-31T01:14:01.440Z,0
2017-08-31T01:14:41.983Z,0
2017-08-31T01:15:22.513Z,0
2017-08-31T01:16:03.056Z,0
2017-08-31T01:16:43.597Z,0
2017-08-31T01:17:24.123Z,0
2017-08-31T01:18:04.665Z,0
2017-08-31T01:18:45.203Z,0
2017-08-31T01:19:25.749Z,0
2017-08-31T01:20:06.287Z,0
2017-08-31T01:20:46.818Z,0
2017-08-31T01:21:27.374Z,0
2017-08-31T01:22:07.913Z,0
2017-08-31T01:22:48.460Z,0
2017-08-31T01:23:28.982Z,0
2017-08-31T01:24:09.523Z,0
2017-08-31T01:24:50.062Z,0
2017-08-31T01:25:30.612Z,0
2017-08-31T01:26:11.223Z,0
2017-08-31T01:26:51.747Z,0
2017-08-31T01:27:32.280Z,0
2017-08-31T01:28:12.818Z,0
2017-08-31T01:28:53.368Z,0
2017-08-31T01:29:33.920Z,0
2017-08-31T01:30:14.459Z,0
2017-08-31T01:30:54.997Z,0
2017-08-31T01:31:35.563Z,0
2017-08-31T01:32:16.121Z,0
2017-08-31T01:32:56.661Z,0
2017-08-31T01:33:37.200Z,0
2017-08-31T01:34:17.743Z,0
2017-08-31T01:34:58.286Z,0
2017-08-31T01:35:38.832Z,0
2017-08-31T01:36:19.375Z,0
2017-08-31T01:36:59.920Z,0
2017-08-31T01:37:40.445Z,0
2017-08-31T01:38:20.983Z,0
2017-08-31T01:39:01.527Z,0
2017-08-31T01:39:42.067Z,0
2017-08-31T01:40:22.608Z,0
2017-08-31T01:41:03.153Z,0
2017-08-31T01:41:43.698Z,0
2017-08-31T01:42:24.249Z,0
2017-08-31T01:43:04.787Z,0
2017-08-31T01:43:45.317Z,0
2017-08-31T01:44:25.855Z,0
2017-08-31T01:45:06.395Z,0
2017-08-31T01:45:46.936Z,0
2017-08-31T01:46:27.481Z,0
2017-08-31T01:47:08.041Z,0
2017-08-31T01:47:48.582Z,0
2017-08-31T01:48:29.132Z,0
2017-08-31T01:49:09.669Z,0
2017-08-31T01:49:50.217Z,0
2017-08-31T01:50:30.758Z,0
2017-08-31T01:51:11.295Z,0
2017-08-31T01:51:51.835Z,0
2017-08-31T01:52:32.393Z,0
2017-08-31T01:53:12.907Z,0
2017-08-31T01:53:53.445Z,0
2017-08-31T01:54:33.985Z,0
2017-08-31T01:55:14.529Z,0
2017-08-31T01:55:55.071Z,0
2017-08-31T01:56:35.613Z,0
2017-08-31T01:57:16.132Z,0
2017-08-31T01:57:56.662Z,0
2017-08-31T01:58:37.199Z,0
2017-08-31T01:59:17.742Z,0
2017-08-31T01:59:58.282Z,0
2017-08-31T02:00:38.824Z,0
2017-08-31T02:01:19.358Z,0
2017-08-31T02:01:59.897Z,0
2017-08-31T02:02:40.445Z,0
2017-08-31T02:03:20.966Z,0
2017-08-31T02:04:01.508Z,0
2017-08-31T02:04:42.053Z,0
2017-08-31T02:05:22.595Z,0
2017-08-31T02:06:03.136Z,0
2017-08-31T02:06:43.665Z,0
2017-08-31T02:07:24.195Z,0
2017-08-31T02:08:04.742Z,0
2017-08-31T02:08:45.273Z,0
2017-08-31T02:09:25.811Z,0
2017-08-31T02:10:06.349Z,0
2017-08-31T02:10:46.877Z,0
2017-08-31T02:11:27.416Z,0
2017-08-31T02:12:07.955Z,0
2017-08-31T02:12:48.497Z,0
2017-08-31T02:13:29.028Z,0
2017-08-31T02:14:09.560Z,0
2017-08-31T02:14:50.116Z,0
2017-08-31T02:15:30.654Z,0
2017-08-31T02:16:11.194Z,0
2017-08-31T02:16:51.727Z,0
2017-08-31T02:17:32.281Z,0
2017-08-31T02:18:12.813Z,0
2017-08-31T02:18:53.364Z,0
2017-08-31T02:19:33.886Z,0
2017-08-31T02:20:14.428Z,0
2017-08-31T02:20:54.964Z,0
2017-08-31T02:21:35.479Z,0
2017-08-31T02:22:16.004Z,0
2017-08-31T02:22:56.545Z,0
2017-08-31T02:23:37.086Z,0
2017-08-31T02:24:17.625Z,0
2017-08-31T02:24:58.164Z,0
2017-08-31T02:25:38.690Z,0
2017-08-31T02:26:19.251Z,0
2017-08-31T02:26:59.781Z,0
2017-08-31T02:27:40.315Z,0
2017-08-31T02:28:20.846Z,0
2017-08-31T02:29:07.938Z,0
2017-08-31T02:29:48.474Z,0
2017-08-31T02:30:29.019Z,0
2017-08-31T02:31:09.557Z,0
2017-08-31T02:31:50.119Z,0
2017-08-31T02:32:30.662Z,0
2017-08-31T02:33:11.257Z,0
2017-08-31T02:33:51.797Z,0
2017-08-31T02:34:32.338Z,0
2017-08-31T02:35:12.880Z,0
2017-08-31T02:35:53.428Z,0
2017-08-31T02:36:33.967Z,0
2017-08-31T02:37:14.510Z,0
2017-08-31T02:37:55.050Z,0
2017-08-31T02:38:35.573Z,0
2017-08-31T02:39:16.117Z,0
2017-08-31T02:39:56.657Z,0
2017-08-31T02:40:37.200Z,0
2017-08-31T02:41:17.740Z,0
2017-08-31T02:41:58.289Z,0
2017-08-31T02:42:38.832Z,0
2017-08-31T02:43:19.370Z,0
2017-08-31T02:43:59.941Z,0
2017-08-31T02:44:40.492Z,0
2017-08-31T02:45:21.028Z,0
2017-08-31T02:46:01.565Z,0
2017-08-31T02:46:42.104Z,0
2017-08-31T02:47:22.635Z,0
2017-08-31T02:48:03.169Z,0
2017-08-31T02:48:43.753Z,0
2017-08-31T02:49:24.271Z,0
2017-08-31T02:50:04.807Z,0
2017-08-31T02:50:45.351Z,0
2017-08-31T02:51:25.895Z,0
2017-08-31T02:52:06.433Z,0
2017-08-31T02:52:46.977Z,0
2017-08-31T02:53:27.521Z,0
2017-08-31T02:54:08.075Z,0
2017-08-31T02:54:48.613Z,0
2017-08-31T02:55:29.158Z,0
2017-08-31T02:56:09.682Z,0
2017-08-31T02:56:50.230Z,0
2017-08-31T02:57:30.771Z,0
2017-08-31T02:58:11.307Z,0
2017-08-31T02:58:51.882Z,0
2017-08-31T02:59:32.381Z,0
2017-08-31T03:00:12.928Z,0
2017-08-31T03:00:53.475Z,0
2017-08-31T03:01:34.022Z,0
2017-08-31T03:02:14.562Z,0
2017-08-31T03:02:55.090Z,0
2017-08-31T03:03:35.629Z,0
2017-08-31T03:04:16.173Z,0
2017-08-31T03:04:56.711Z,0
2017-08-31T03:05:37.257Z,0
2017-08-31T03:06:17.797Z,0
2017-08-31T03:06:58.331Z,0
2017-08-31T03:07:38.880Z,0
2017-08-31T03:08:19.409Z,0
2017-08-31T03:08:59.946Z,0
2017-08-31T03:09:40.511Z,0
2017-08-31T03:10:21.028Z,0
2017-08-31T03:11:01.571Z,0
2017-08-31T03:11:42.117Z,0
2017-08-31T03:12:22.665Z,0
2017-08-31T03:13:03.208Z,0
2017-08-31T03:13:43.734Z,0
2017-08-31T03:14:24.280Z,0
2017-08-31T03:15:04.801Z,0
2017-08-31T03:15:45.340Z,0
2017-08-31T03:16:25.880Z,0
2017-08-31T03:17:06.420Z,0
2017-08-31T03:17:46.964Z,0
2017-08-31T03:18:27.494Z,0
2017-08-31T03:19:08.060Z,0
2017-08-31T03:19:48.600Z,0
2017-08-31T03:20:29.180Z,0
2017-08-31T03:21:09.694Z,0
2017-08-31T03:21:50.208Z,0
2017-08-31T03:22:30.748Z,0
2017-08-31T03:23:11.272Z,0
2017-08-31T03:23:51.796Z,0
2017-08-31T03:24:32.362Z,0
2017-08-31T03:25:12.898Z,0
2017-08-31T03:25:53.427Z,0
2017-08-31T03:26:33.962Z,0
2017-08-31T03:27:15.000Z,0
2017-08-31T03:27:55.671Z,0
2017-08-31T03:28:36.209Z,0
2017-08-31T03:29:16.755Z,0
2017-08-31T03:29:57.300Z,0
2017-08-31T03:30:37.861Z,0
2017-08-31T03:31:18.400Z,0
2017-08-31T03:31:59.619Z,0
2017-08-31T03:32:40.165Z,0
2017-08-31T03:33:20.754Z,0
2017-08-31T03:34:01.410Z,0
2017-08-31T03:34:41.936Z,0
2017-08-31T03:35:22.483Z,0
2017-08-31T03:36:03.007Z,0
2017-08-31T03:36:43.540Z,0
2017-08-31T03:37:24.362Z,0
2017-08-31T03:38:04.907Z,0
2017-08-31T03:38:45.489Z,0
2017-08-31T03:39:26.259Z,0
2017-08-31T03:40:06.814Z,0
2017-08-31T03:40:47.363Z,0
2017-08-31T03:41:27.895Z,0
2017-08-31T03:42:08.454Z,0
2017-08-31T03:42:48.997Z,0
2017-08-31T03:43:29.544Z,0
2017-08-31T03:44:10.094Z,0
2017-08-31T03:44:50.610Z,0
2017-08-31T03:45:31.139Z,0
2017-08-31T03:46:11.680Z,0
2017-08-31T03:46:52.220Z,0
2017-08-31T03:47:32.758Z,0
2017-08-31T03:48:13.298Z,0
2017-08-31T03:48:53.846Z,0
2017-08-31T03:49:34.388Z,0
2017-08-31T03:50:14.926Z,0
2017-08-31T03:50:55.464Z,0
2017-08-31T03:51:37.970Z,0
2017-08-31T03:52:18.511Z,0
2017-08-31T03:52:59.047Z,0
2017-08-31T03:53:39.591Z,0
2017-08-31T03:54:20.129Z,0
2017-08-31T03:55:00.661Z,0
2017-08-31T03:55:41.201Z,0
2017-08-31T03:56:21.748Z,0
2017-08-31T03:57:02.288Z,0
2017-08-31T03:57:42.833Z,0
2017-08-31T03:58:23.371Z,0
2017-08-31T03:59:03.910Z,0
2017-08-31T03:59:44.454Z,0
2017-08-31T04:00:24.984Z,0
2017-08-31T04:01:05.523Z,0
2017-08-31T04:01:46.063Z,0
2017-08-31T04:02:26.608Z,0
2017-08-31T04:03:07.139Z,0
2017-08-31T04:03:47.690Z,0
2017-08-31T04:04:28.228Z,0
2017-08-31T04:05:08.761Z,0
2017-08-31T04:05:49.305Z,0
2017-08-31T04:06:29.849Z,0
2017-08-31T04:07:10.394Z,0
2017-08-31T04:07:50.934Z,0
2017-08-31T04:08:31.474Z,0
2017-08-31T04:09:12.015Z,0
2017-08-31T04:09:52.537Z,0
2017-08-31T04:10:33.091Z,0
2017-08-31T04:11:13.650Z,0
2017-08-31T04:11:54.185Z,0
2017-08-31T04:12:34.712Z,0
2017-08-31T04:13:15.242Z,0
2017-08-31T04:13:55.778Z,0
2017-08-31T04:14:36.320Z,0
2017-08-31T04:15:16.866Z,0
2017-08-31T04:15:57.397Z,0
2017-08-31T04:18:17.100Z,0
2017-08-31T04:18:59.149Z,0
2017-08-31T04:19:39.761Z,0
2017-08-31T04:20:20.407Z,0
2017-08-31T04:21:00.928Z,0
2017-08-31T04:21:41.515Z,0
2017-08-31T04:22:21.990Z,0
2017-08-31T04:23:02.549Z,0
2017-08-31T04:23:43.055Z,0
2017-08-31T04:24:23.594Z,0
2017-08-31T04:25:04.133Z,0
2017-08-31T04:25:44.668Z,0
2017-08-31T04:26:25.208Z,0
2017-08-31T04:27:05.749Z,0
2017-08-31T04:27:46.278Z,0
2017-08-31T04:28:26.815Z,0
2017-08-31T04:29:07.347Z,0
2017-08-31T04:29:47.895Z,0
2017-08-31T04:30:28.418Z,0
2017-08-31T04:31:08.945Z,0
2017-08-31T04:31:49.516Z,0
2017-08-31T04:32:30.212Z,0
2017-08-31T04:33:10.757Z,0
2017-08-31T04:33:51.297Z,0
2017-08-31T04:34:31.834Z,0
2017-08-31T04:35:12.384Z,0
2017-08-31T04:35:52.926Z,0
2017-08-31T04:36:33.472Z,0
2017-08-31T04:37:14.036Z,0
2017-08-31T04:37:54.544Z,0
2017-08-31T04:38:35.080Z,0
2017-08-31T04:39:15.614Z,0
2017-08-31T04:39:56.143Z,0
2017-08-31T04:40:36.680Z,4
2017-08-31T04:41:17.229Z,4
2017-08-31T04:41:57.754Z,4
2017-08-31T04:42:38.288Z,0
2017-08-31T04:43:18.827Z,4
2017-08-31T04:43:59.367Z,4
2017-08-31T04:44:39.916Z,4
2017-08-31T04:45:20.434Z,4
2017-08-31T04:46:00.969Z,4
2017-08-31T04:46:41.517Z,4
2017-08-31T04:47:22.066Z,4
2017-08-31T04:48:02.565Z,8
2017-08-31T04:48:43.088Z,4
2017-08-31T04:49:23.613Z,8
2017-08-31T04:50:04.148Z,4
2017-08-31T04:50:44.681Z,8
2017-08-31T04:51:25.218Z,12
2017-08-31T04:52:05.737Z,8
2017-08-31T04:52:46.253Z,8
2017-08-31T04:53:28.494Z,12
2017-08-31T04:54:09.028Z,12
2017-08-31T04:54:49.541Z,12
2017-08-31T04:55:30.075Z,12
2017-08-31T04:56:10.609Z,12
2017-08-31T04:56:51.149Z,20
2017-08-31T04:57:31.685Z,24
2017-08-31T04:58:12.231Z,24
2017-08-31T04:58:52.755Z,28
2017-08-31T04:59:33.299Z,28
2017-08-31T05:00:13.836Z,36
2017-08-31T05:00:54.376Z,44
2017-08-31T05:01:34.949Z,52
2017-08-31T05:02:15.489Z,56
2017-08-31T05:02:56.030Z,60
2017-08-31T05:03:36.572Z,64
2017-08-31T05:04:17.092Z,64
2017-08-31T05:04:57.639Z,68
2017-08-31T05:05:38.205Z,64
2017-08-31T05:06:18.746Z,64
2017-08-31T05:06:59.288Z,64
2017-08-31T05:07:39.849Z,72
2017-08-31T05:08:20.407Z,80
2017-08-31T05:09:00.920Z,88
2017-08-31T05:09:41.453Z,80
2017-08-31T05:10:21.991Z,72
2017-08-31T05:11:02.532Z,64
2017-08-31T05:11:43.076Z,64
2017-08-31T05:12:23.634Z,64
2017-08-31T05:13:04.182Z,64
2017-08-31T05:13:44.707Z,64
2017-08-31T05:14:25.260Z,64
2017-08-31T05:15:05.812Z,72
2017-08-31T05:15:46.357Z,76
2017-08-31T05:16:26.888Z,80
2017-08-31T05:17:07.412Z,84
2017-08-31T05:17:47.949Z,92
2017-08-31T05:18:28.488Z,104
2017-08-31T05:19:09.041Z,104
2017-08-31T05:19:49.556Z,96
2017-08-31T05:20:30.092Z,104
2017-08-31T05:21:10.647Z,84
2017-08-31T05:21:51.171Z,92
2017-08-31T05:22:31.695Z,92
2017-08-31T05:23:12.237Z,100
2017-08-31T05:23:52.774Z,96
2017-08-31T05:24:33.307Z,96
2017-08-31T05:25:13.852Z,112
2017-08-31T05:25:54.371Z,112
2017-08-31T05:26:34.906Z,120
2017-08-31T05:27:15.447Z,112
2017-08-31T05:27:55.975Z,104
2017-08-31T05:28:36.523Z,116
2017-08-31T05:29:17.101Z,128
2017-08-31T05:29:57.636Z,144
2017-08-31T05:30:38.160Z,124
2017-08-31T05:31:18.691Z,140
2017-08-31T05:31:59.223Z,180
2017-08-31T05:32:39.763Z,244
2017-08-31T05:33:20.296Z,248
2017-08-31T05:34:00.825Z,244
2017-08-31T05:34:41.380Z,272
2017-08-31T05:35:21.923Z,264
2017-08-31T05:36:02.442Z,236
2017-08-31T05:36:43.022Z,224
2017-08-31T05:37:23.579Z,216
2017-08-31T05:38:04.121Z,236
2017-08-31T05:38:44.671Z,220
2017-08-31T05:39:25.222Z,208
2017-08-31T05:40:05.754Z,200
2017-08-31T05:40:46.285Z,208
2017-08-31T05:41:26.820Z,192
2017-08-31T05:42:07.365Z,156
2017-08-31T05:42:47.912Z,156
2017-08-31T05:43:28.458Z,156
2017-08-31T05:44:08.976Z,172
2017-08-31T05:44:49.525Z,188
2017-08-31T05:45:30.027Z,236
2017-08-31T05:46:10.570Z,256
2017-08-31T05:46:51.119Z,216
2017-08-31T05:47:31.663Z,144
2017-08-31T05:48:12.190Z,156
2017-08-31T05:48:52.720Z,148
2017-08-31T05:49:33.227Z,156
2017-08-31T05:50:13.764Z,160
2017-08-31T05:50:54.307Z,172
2017-08-31T05:51:34.846Z,176
2017-08-31T05:52:15.386Z,212
2017-08-31T05:52:55.938Z,244
2017-08-31T05:53:36.471Z,252
2017-08-31T05:54:16.993Z,252
2017-08-31T05:54:57.528Z,268
2017-08-31T05:55:38.067Z,308
2017-08-31T05:56:18.606Z,328
2017-08-31T05:56:59.168Z,340
2017-08-31T05:57:39.693Z,400
2017-08-31T05:58:20.247Z,464
2017-08-31T05:59:00.794Z,476
2017-08-31T05:59:41.340Z,448
2017-08-31T06:00:21.870Z,420
2017-08-31T06:01:02.397Z,428
2017-08-31T06:01:42.936Z,352
2017-08-31T06:02:23.474Z,328
2017-08-31T06:03:03.997Z,308
2017-08-31T06:03:44.540Z,344
2017-08-31T06:04:25.068Z,392
2017-08-31T06:05:05.599Z,364
2017-08-31T06:05:46.138Z,544
2017-08-31T06:06:26.677Z,556
2017-08-31T06:07:07.197Z,428
2017-08-31T06:07:47.730Z,380
2017-08-31T06:08:28.273Z,348
2017-08-31T06:09:08.810Z,304
2017-08-31T06:09:49.366Z,376
2017-08-31T06:10:29.902Z,340
2017-08-31T06:11:10.437Z,396
2017-08-31T06:11:50.981Z,340
2017-08-31T06:12:31.509Z,320
2017-08-31T06:13:12.027Z,340
2017-08-31T06:13:52.555Z,300
2017-08-31T06:14:33.090Z,396
2017-08-31T06:15:13.627Z,340
2017-08-31T06:15:54.157Z,264
2017-08-31T06:16:34.704Z,336
2017-08-31T06:17:15.229Z,484
2017-08-31T06:17:55.814Z,460
2017-08-31T06:18:36.346Z,412
2017-08-31T06:19:16.887Z,424
2017-08-31T06:19:57.412Z,484
2017-08-31T06:20:37.949Z,480
2017-08-31T06:21:18.491Z,404
2017-08-31T06:21:59.017Z,328
2017-08-31T06:22:39.573Z,392
2017-08-31T06:23:20.107Z,384
2017-08-31T06:24:00.649Z,376
2017-08-31T06:24:41.161Z,368
2017-08-31T06:25:21.702Z,416
2017-08-31T06:26:02.227Z,380
2017-08-31T06:26:42.774Z,360
2017-08-31T06:27:23.305Z,512
2017-08-31T06:28:03.821Z,632
2017-08-31T06:28:44.357Z,560
2017-08-31T06:29:24.887Z,556
2017-08-31T06:30:05.447Z,804
2017-08-31T06:30:45.967Z,1024
2017-08-31T06:31:26.514Z,896
2017-08-31T06:32:07.036Z,888
2017-08-31T06:32:47.571Z,888
2017-08-31T06:33:28.110Z,712
2017-08-31T06:34:08.656Z,720
2017-08-31T06:34:49.195Z,760
2017-08-31T06:35:29.723Z,692
2017-08-31T06:36:10.266Z,580
2017-08-31T06:36:50.784Z,724
2017-08-31T06:37:31.325Z,660
2017-08-31T06:38:11.862Z,780
2017-08-31T06:38:52.405Z,848
2017-08-31T06:39:32.942Z,1068
2017-08-31T06:40:13.476Z,1036
2017-08-31T06:40:54.037Z,916
2017-08-31T06:41:34.572Z,780
2017-08-31T06:42:15.103Z,760
2017-08-31T06:42:55.642Z,636
2017-08-31T06:43:36.181Z,700
2017-08-31T06:44:16.729Z,864
2017-08-31T06:44:57.270Z,856
2017-08-31T06:45:37.811Z,972
2017-08-31T06:46:18.334Z,1000
2017-08-31T06:46:58.897Z,840
2017-08-31T06:47:39.429Z,836
2017-08-31T06:48:19.972Z,724
2017-08-31T06:49:00.509Z,736
2017-08-31T06:49:41.046Z,748
2017-08-31T06:50:21.603Z,676
2017-08-31T06:51:02.139Z,516
2017-08-31T06:51:42.678Z,584
2017-08-31T06:52:23.218Z,612
2017-08-31T06:53:03.760Z,600
2017-08-31T06:53:44.289Z,592
2017-08-31T06:54:24.823Z,444
2017-08-31T06:55:05.354Z,532
2017-08-31T06:55:45.883Z,640
2017-08-31T06:56:26.422Z,472
2017-08-31T06:57:06.959Z,432
2017-08-31T06:57:47.501Z,468
2017-08-31T06:58:28.038Z,488
2017-08-31T06:59:08.603Z,584
2017-08-31T06:59:49.164Z,576
2017-08-31T07:00:29.696Z,512
2017-08-31T07:01:10.233Z,552
2017-08-31T07:01:50.761Z,540
2017-08-31T07:02:31.323Z,484
2017-08-31T07:03:11.856Z,636
2017-08-31T07:03:52.398Z,572
2017-08-31T07:04:32.944Z,556
2017-08-31T07:05:13.481Z,636
2017-08-31T07:05:54.011Z,824
2017-08-31T07:06:34.549Z,784
2017-08-31T07:07:15.083Z,688
2017-08-31T07:07:55.613Z,784
2017-08-31T07:08:36.181Z,804
2017-08-31T07:09:16.720Z,844
2017-08-31T07:09:57.258Z,856
2017-08-31T07:10:37.797Z,824
2017-08-31T07:11:18.338Z,936
2017-08-31T07:11:58.869Z,932
2017-08-31T07:12:39.410Z,1116
2017-08-31T07:13:19.962Z,1084
2017-08-31T07:14:00.517Z,1144
2017-08-31T07:14:41.055Z,1204
2017-08-31T07:15:21.608Z,1188
2017-08-31T07:16:02.160Z,1516
2017-08-31T07:16:42.676Z,1860
2017-08-31T07:17:23.217Z,1860
2017-08-31T07:18:03.755Z,1960
2017-08-31T07:18:44.294Z,1992
2017-08-31T07:19:24.831Z,1660
2017-08-31T07:20:05.374Z,1468
2017-08-31T07:20:45.912Z,1320
2017-08-31T07:21:26.457Z,1420
2017-08-31T07:22:06.991Z,1536
2017-08-31T07:22:47.567Z,1328
2017-08-31T07:23:28.104Z,1084
2017-08-31T07:24:08.631Z,1592
2017-08-31T07:24:49.168Z,1456
2017-08-31T07:25:29.805Z,1404
2017-08-31T07:26:10.347Z,1480
2017-08-31T07:26:50.884Z,1260
2017-08-31T07:27:31.429Z,1128
2017-08-31T07:28:11.974Z,1212
2017-08-31T07:28:52.502Z,1628
2017-08-31T07:29:33.036Z,1432
2017-08-31T07:30:13.572Z,1172
2017-08-31T07:30:54.110Z,1116
2017-08-31T07:31:34.632Z,1116
2017-08-31T07:32:15.179Z,1072
2017-08-31T07:32:55.713Z,1244
2017-08-31T07:33:36.256Z,1304
2017-08-31T07:34:16.792Z,1268
2017-08-31T07:34:57.321Z,1108
2017-08-31T07:35:37.864Z,1132
2017-08-31T07:36:18.417Z,980
2017-08-31T07:36:58.968Z,1296
2017-08-31T07:37:39.508Z,1780
2017-08-31T07:38:20.035Z,1780
2017-08-31T07:39:00.565Z,1764
2017-08-31T07:39:41.092Z,1968
2017-08-31T07:40:21.631Z,1668
2017-08-31T07:41:02.170Z,1560
2017-08-31T07:41:42.724Z,1520
2017-08-31T07:42:23.262Z,1348
2017-08-31T07:43:03.799Z,1296
2017-08-31T07:43:44.336Z,1540
2017-08-31T07:44:24.922Z,1996
2017-08-31T07:45:05.462Z,2444
2017-08-31T07:45:46.032Z,2340
2017-08-31T07:46:26.575Z,2364
2017-08-31T07:47:07.116Z,2448
2017-08-31T07:47:47.646Z,2724
2017-08-31T07:48:28.197Z,2764
2017-08-31T07:49:08.707Z,2412
2017-08-31T07:49:49.246Z,2188
2017-08-31T07:50:29.782Z,2732
2017-08-31T07:51:10.300Z,2632
2017-08-31T07:51:50.845Z,2692
2017-08-31T07:52:31.383Z,2336
2017-08-31T07:53:11.924Z,2684
2017-08-31T07:53:52.462Z,3212
2017-08-31T07:54:33.015Z,3408
2017-08-31T07:55:13.555Z,3640
2017-08-31T07:55:54.093Z,2968
2017-08-31T07:56:34.633Z,2564
2017-08-31T07:57:15.158Z,2572
2017-08-31T07:57:55.742Z,3040
2017-08-31T07:58:36.241Z,3296
2017-08-31T07:59:16.781Z,3012
2017-08-31T07:59:57.312Z,3308
2017-08-31T08:00:37.849Z,3544
2017-08-31T08:01:18.388Z,3272
2017-08-31T08:01:58.926Z,3204
2017-08-31T08:02:39.469Z,3276
2017-08-31T08:03:20.010Z,3348
2017-08-31T08:04:00.534Z,3220
2017-08-31T08:04:41.075Z,3380
2017-08-31T08:05:21.603Z,3444
2017-08-31T08:06:02.144Z,3732
2017-08-31T08:06:42.678Z,3692
2017-08-31T08:07:23.219Z,3600
2017-08-31T08:08:03.771Z,3668
2017-08-31T08:08:44.320Z,3424
2017-08-31T08:09:24.842Z,3364
2017-08-31T08:10:05.381Z,3392
2017-08-31T08:10:45.918Z,3152
2017-08-31T08:11:26.457Z,3128
2017-08-31T08:12:06.999Z,3088
2017-08-31T08:12:47.546Z,2652
2017-08-31T08:13:28.102Z,2760
2017-08-31T08:14:08.624Z,2596
2017-08-31T08:14:49.178Z,2300
2017-08-31T08:15:29.698Z,2060
2017-08-31T08:16:10.236Z,2796
2017-08-31T08:16:50.774Z,2732
2017-08-31T08:17:31.311Z,2908
2017-08-31T08:18:11.859Z,3232
2017-08-31T08:18:52.393Z,3316
2017-08-31T08:19:32.960Z,2896
2017-08-31T08:20:13.485Z,2812
2017-08-31T08:20:54.025Z,3172
2017-08-31T08:21:34.571Z,3316
2017-08-31T08:22:15.120Z,3608
2017-08-31T08:22:55.624Z,3800
2017-08-31T08:23:36.164Z,3668
2017-08-31T08:24:16.691Z,3676
2017-08-31T08:24:57.226Z,4212
2017-08-31T08:25:37.757Z,4228
2017-08-31T08:26:18.292Z,3724
2017-08-31T08:26:58.856Z,3524
2017-08-31T08:27:39.390Z,3812
2017-08-31T08:28:19.920Z,3640
2017-08-31T08:29:00.463Z,4212
2017-08-31T08:29:41.009Z,4220
2017-08-31T08:30:21.544Z,4488
2017-08-31T08:31:02.082Z,4652
2017-08-31T08:31:42.613Z,3696
2017-08-31T08:32:23.186Z,3460
2017-08-31T08:33:03.708Z,3056
2017-08-31T08:33:44.240Z,3028
2017-08-31T08:34:24.779Z,3468
2017-08-31T08:35:05.320Z,3388
2017-08-31T08:35:45.844Z,3752
2017-08-31T08:36:26.400Z,4204
2017-08-31T08:37:06.939Z,4536
2017-08-31T08:37:47.480Z,4420
2017-08-31T08:38:28.027Z,3500
2017-08-31T08:39:08.550Z,4308
2017-08-31T08:39:49.087Z,4656
2017-08-31T08:40:29.628Z,3996
2017-08-31T08:41:10.177Z,3888
2017-08-31T08:41:50.696Z,4576
2017-08-31T08:42:31.225Z,4712
2017-08-31T08:43:11.762Z,3584
2017-08-31T08:43:52.299Z,3824
2017-08-31T08:44:32.838Z,4268
2017-08-31T08:45:13.370Z,3972
2017-08-31T08:45:53.908Z,3536
2017-08-31T08:46:34.451Z,3552
2017-08-31T08:47:14.984Z,2940
2017-08-31T08:47:55.513Z,3444
2017-08-31T08:48:36.062Z,4236
2017-08-31T08:49:16.594Z,4180
2017-08-31T08:49:57.134Z,3912
2017-08-31T08:50:37.676Z,3736
2017-08-31T08:51:18.213Z,3244
2017-08-31T08:51:58.750Z,3660
2017-08-31T08:52:39.281Z,3580
2017-08-31T08:53:19.827Z,4252
2017-08-31T08:54:00.365Z,4824
2017-08-31T08:54:40.903Z,5320
2017-08-31T08:55:21.449Z,5372
2017-08-31T08:56:01.988Z,5028
2017-08-31T08:56:42.529Z,5104
2017-08-31T08:57:23.059Z,4972
2017-08-31T08:58:03.640Z,3972
2017-08-31T08:58:44.139Z,3912
2017-08-31T08:59:24.677Z,4140
2017-08-31T09:00:05.216Z,4200
2017-08-31T09:00:45.778Z,4096
2017-08-31T09:01:26.314Z,3692
2017-08-31T09:02:06.856Z,3544
2017-08-31T09:02:47.395Z,3200
2017-08-31T09:03:27.937Z,2932
2017-08-31T09:04:08.467Z,2824
2017-08-31T09:04:49.003Z,2696
2017-08-31T09:05:29.542Z,2456
2017-08-31T09:06:10.086Z,2476
2017-08-31T09:06:50.619Z,2892
2017-08-31T09:07:31.161Z,3244
2017-08-31T09:08:11.715Z,3412
2017-08-31T09:08:52.252Z,3660
2017-08-31T09:09:32.792Z,4076
2017-08-31T09:10:13.334Z,5000
2017-08-31T09:10:53.876Z,4960
2017-08-31T09:11:34.403Z,4504
2017-08-31T09:12:14.938Z,4236
2017-08-31T09:12:55.478Z,4204
2017-08-31T09:13:36.081Z,4292
2017-08-31T09:14:16.625Z,4196
2017-08-31T09:14:57.153Z,4088
2017-08-31T09:15:37.687Z,4152
2017-08-31T09:16:18.261Z,4236
2017-08-31T09:16:58.797Z,4412
2017-08-31T09:17:39.331Z,4176
2017-08-31T09:18:19.870Z,3296
2017-08-31T09:19:00.414Z,2404
2017-08-31T09:19:40.950Z,1780
2017-08-31T09:20:21.493Z,1372
2017-08-31T09:21:02.030Z,1464
2017-08-31T09:21:42.577Z,2344
2017-08-31T09:22:23.101Z,2876
2017-08-31T09:23:03.638Z,2476
2017-08-31T09:23:44.178Z,2424
2017-08-31T09:24:24.717Z,1900
2017-08-31T09:25:05.259Z,1564
2017-08-31T09:25:45.797Z,1492
2017-08-31T09:26:26.335Z,1652
2017-08-31T09:27:06.866Z,1884
2017-08-31T09:27:47.403Z,2832
2017-08-31T09:28:27.957Z,2488
2017-08-31T09:29:08.482Z,2724
2017-08-31T09:29:49.024Z,2760
2017-08-31T09:30:29.561Z,2556
2017-08-31T09:31:10.104Z,2264
2017-08-31T09:31:50.644Z,2612
2017-08-31T09:32:31.192Z,2456
2017-08-31T09:33:11.738Z,2200
2017-08-31T09:33:52.294Z,2160
2017-08-31T09:34:32.835Z,2472
2017-08-31T09:35:13.374Z,3004
2017-08-31T09:35:53.908Z,3956